www.cux-wetter.de
Wetterdaten: Donnerstag, 14.03.2013
Datum Zeit Temp. A. Feuchte A. Luftdruck Regen Wind Richtung Richtung Sonnenschein Solar Taupunkt Windchill Windben
14.03.2013 00:00 -0,2 C 84 % 1005,5 hPa 0,0 l/m 4,2 km/h (1 Bft) O-NO 65 0 min 0 W/m -2,6 C -0,2 C 4,2 km/h (1 Bft)
14.03.2013 00:15 -0,4 C 85 % 1006,5 hPa 0,0 l/m 13,5 km/h (3 Bft) O 90 0 min 0 W/m -2,6 C -6,5 C 13,5 km/h (3 Bft)
14.03.2013 00:30 -0,5 C 86 % 1006,5 hPa 0,0 l/m 10,0 km/h (2 Bft) O-NO 70 0 min 0 W/m -2,5 C -4,0 C 10,0 km/h (2 Bft)
14.03.2013 00:45 -0,6 C 87 % 1006,5 hPa 0,0 l/m 11,3 km/h (2 Bft) O 80 0 min 0 W/m -2,5 C -5,2 C 11,3 km/h (2 Bft)
14.03.2013 01:00 -0,6 C 87 % 1006,5 hPa 0,0 l/m 13,5 km/h (3 Bft) O 85 0 min 0 W/m -2,5 C -6,7 C 13,5 km/h (3 Bft)
14.03.2013 01:15 -0,5 C 88 % 1006,5 hPa 0,0 l/m 12,6 km/h (3 Bft) O 85 0 min 0 W/m -2,2 C -6,0 C 12,6 km/h (3 Bft)
14.03.2013 01:30 -0,4 C 87 % 1006,5 hPa 0,0 l/m 11,4 km/h (2 Bft) O-SO 105 0 min 0 W/m -2,3 C -5,0 C 11,4 km/h (2 Bft)
14.03.2013 01:45 -0,4 C 87 % 1006,5 hPa 0,0 l/m 14,3 km/h (3 Bft) O 80 0 min 0 W/m -2,3 C -7,0 C 14,3 km/h (3 Bft)
14.03.2013 02:00 -0,4 C 87 % 1007,5 hPa 0,0 l/m 9,2 km/h (2 Bft) O-NO 70 0 min 0 W/m -2,3 C -3,2 C 9,2 km/h (2 Bft)
14.03.2013 02:15 -0,4 C 87 % 1007,5 hPa 0,0 l/m 10,2 km/h (2 Bft) O-NO 70 0 min 0 W/m -2,3 C -4,1 C 10,2 km/h (2 Bft)
14.03.2013 02:30 -0,5 C 87 % 1007,5 hPa 0,0 l/m 7,0 km/h (2 Bft) O-NO 75 0 min 0 W/m -2,4 C -1,1 C 7,0 km/h (2 Bft)
14.03.2013 02:45 -0,6 C 87 % 1007,5 hPa 0,0 l/m 10,1 km/h (2 Bft) O 85 0 min 0 W/m -2,5 C -4,2 C 10,1 km/h (2 Bft)
14.03.2013 03:00 -0,5 C 87 % 1007,5 hPa 0,0 l/m 11,6 km/h (2 Bft) O 95 0 min 0 W/m -2,4 C -5,3 C 11,6 km/h (2 Bft)
14.03.2013 03:15 -0,6 C 87 % 1007,5 hPa 0,0 l/m 10,1 km/h (2 Bft) O-NO 60 0 min 0 W/m -2,5 C -4,2 C 10,1 km/h (2 Bft)
14.03.2013 03:30 -0,6 C 87 % 1007,5 hPa 0,0 l/m 15,2 km/h (3 Bft) O 80 0 min 0 W/m -2,5 C -7,8 C 15,2 km/h (3 Bft)
14.03.2013 03:45 -0,6 C 86 % 1007,5 hPa 0,0 l/m 12,0 km/h (2 Bft) O-NO 75 0 min 0 W/m -2,6 C -5,7 C 12,0 km/h (2 Bft)
14.03.2013 04:00 -0,6 C 86 % 1007,5 hPa 0,0 l/m 13,3 km/h (3 Bft) O-NO 60 0 min 0 W/m -2,6 C -6,6 C 13,3 km/h (3 Bft)
14.03.2013 04:15 -0,7 C 85 % 1007,5 hPa 0,0 l/m 13,7 km/h (3 Bft) O 80 0 min 0 W/m -2,9 C -7,0 C 13,7 km/h (3 Bft)
14.03.2013 04:30 -0,7 C 85 % 1007,5 hPa 0,0 l/m 8,9 km/h (2 Bft) O-NO 60 0 min 0 W/m -2,9 C -3,2 C 8,9 km/h (2 Bft)
14.03.2013 04:45 -0,7 C 85 % 1007,5 hPa 0,0 l/m 10,0 km/h (2 Bft) O-NO 75 0 min 0 W/m -2,9 C -4,2 C 10,0 km/h (2 Bft)
14.03.2013 05:00 -0,6 C 85 % 1007,5 hPa 0,0 l/m 10,4 km/h (2 Bft) NO 55 0 min 0 W/m -2,8 C -4,4 C 10,4 km/h (2 Bft)
14.03.2013 05:15 -0,7 C 85 % 1007,5 hPa 0,0 l/m 7,9 km/h (2 Bft) O-NO 70 0 min 0 W/m -2,9 C -2,3 C 7,9 km/h (2 Bft)
14.03.2013 05:30 -0,6 C 85 % 1007,5 hPa 0,0 l/m 10,6 km/h (2 Bft) O-NO 70 0 min 0 W/m -2,8 C -4,6 C 10,6 km/h (2 Bft)
14.03.2013 05:45 -0,8 C 84 % 1007,5 hPa 0,0 l/m 15,8 km/h (3 Bft) NO 55 0 min 0 W/m -3,2 C -8,4 C 15,8 km/h (3 Bft)
14.03.2013 06:00 -0,9 C 83 % 1008,5 hPa 0,0 l/m 12,0 km/h (2 Bft) O-NO 70 0 min 0 W/m -3,4 C -6,0 C 12,0 km/h (2 Bft)
14.03.2013 06:15 -0,9 C 83 % 1008,5 hPa 0,0 l/m 11,5 km/h (2 Bft) O-NO 65 0 min 0 W/m -3,4 C -5,7 C 11,5 km/h (2 Bft)
14.03.2013 06:30 -1,0 C 82 % 1008,5 hPa 0,0 l/m 14,8 km/h (3 Bft) O 80 0 min 0 W/m -3,7 C -8,1 C 14,8 km/h (3 Bft)
14.03.2013 06:45 -1,0 C 82 % 1008,5 hPa 0,0 l/m 22,5 km/h (4 Bft) O 90 0 min 0 W/m -3,7 C -12,1 C 22,5 km/h (4 Bft)
14.03.2013 07:00 -1,4 C 81 % 1008,5 hPa 0,0 l/m 21,9 km/h (4 Bft) O-NO 70 0 min 0 W/m -4,2 C -12,3 C 21,9 km/h (4 Bft)
14.03.2013 07:15 -1,5 C 81 % 1008,5 hPa 0,0 l/m 21,8 km/h (4 Bft) O 80 0 min 0 W/m -4,3 C -12,4 C 21,8 km/h (4 Bft)
14.03.2013 07:30 -1,6 C 79 % 1009,5 hPa 0,0 l/m 21,4 km/h (4 Bft) O 85 0 min 0 W/m -4,8 C -12,4 C 21,4 km/h (4 Bft)
14.03.2013 07:45 -1,7 C 78 % 1009,5 hPa 0,0 l/m 22,5 km/h (4 Bft) O 80 0 min 0 W/m -5,0 C -13,0 C 22,5 km/h (4 Bft)
14.03.2013 08:00 -1,9 C 76 % 1009,5 hPa 0,0 l/m 26,5 km/h (4 Bft) O 80 0 min 0 W/m -5,6 C -14,9 C 26,5 km/h (4 Bft)
14.03.2013 08:15 -2,1 C 74 % 1009,5 hPa 0,0 l/m 24,1 km/h (4 Bft) O 85 0 min 0 W/m -6,1 C -14,2 C 24,1 km/h (4 Bft)
14.03.2013 08:30 -2,0 C 74 % 1010,5 hPa 0,0 l/m 17,6 km/h (3 Bft) O-NO 70 0 min 0 W/m -6,0 C -11,0 C 17,6 km/h (3 Bft)
14.03.2013 08:45 -2,0 C 73 % 1010,5 hPa 0,0 l/m 21,1 km/h (4 Bft) O 100 0 min 0 W/m -6,2 C -12,7 C 21,1 km/h (4 Bft)
14.03.2013 09:01 -2,1 C 72 % 1010,5 hPa 0,0 l/m 18,6 km/h (3 Bft) O 85 0 min 0 W/m -6,5 C -11,6 C 18,6 km/h (3 Bft)
14.03.2013 09:15 -1,9 C 73 % 1010,5 hPa 0,0 l/m 21,8 km/h (4 Bft) O 90 0 min 0 W/m -6,1 C -12,9 C 21,8 km/h (4 Bft)
14.03.2013 09:30 -1,7 C 73 % 1010,5 hPa 0,0 l/m 17,5 km/h (3 Bft) O-NO 65 0 min 0 W/m -5,9 C -10,5 C 17,5 km/h (3 Bft)
14.03.2013 09:45 -1,6 C 72 % 1010,5 hPa 0,0 l/m 15,6 km/h (3 Bft) O-NO 75 0 min 0 W/m -6,0 C -9,3 C 15,6 km/h (3 Bft)
14.03.2013 10:01 -1,1 C 69 % 1010,5 hPa 0,0 l/m 15,6 km/h (3 Bft) O-NO 75 0 min 0 W/m -6,0 C -8,7 C 15,6 km/h (3 Bft)
14.03.2013 10:15 -0,7 C 67 % 1010,5 hPa 0,0 l/m 15,6 km/h (3 Bft) O-NO 75 0 min 0 W/m -6,0 C -8,2 C 15,6 km/h (3 Bft)
14.03.2013 10:30 0,0 C 66 % 1010,5 hPa 0,0 l/m 15,6 km/h (3 Bft) O-NO 75 0 min 0 W/m -5,6 C -7,3 C 15,6 km/h (3 Bft)
14.03.2013 10:45 0,3 C 62 % 1010,5 hPa 0,0 l/m 17,7 km/h (3 Bft) O 90 0 min 0 W/m -6,1 C -8,1 C 17,7 km/h (3 Bft)
14.03.2013 11:01 0,5 C 62 % 1011,5 hPa 0,0 l/m 17,7 km/h (3 Bft) O 90 0 min 0 W/m -5,9 C -7,9 C 17,7 km/h (3 Bft)
14.03.2013 11:15 0,8 C 61 % 1011,5 hPa 0,0 l/m 17,3 km/h (3 Bft) O 80 0 min 0 W/m -5,8 C -7,3 C 17,3 km/h (3 Bft)
14.03.2013 11:30 0,9 C 59 % 1011,5 hPa 0,0 l/m 17,3 km/h (3 Bft) O 80 0 min 0 W/m -6,2 C -7,2 C 17,3 km/h (3 Bft)
14.03.2013 11:46 1,2 C 58 % 1011,5 hPa 0,0 l/m 14,7 km/h (3 Bft) O-NO 75 0 min 0 W/m -6,1 C -5,4 C 14,7 km/h (3 Bft)
14.03.2013 12:00 1,2 C 57 % 1011,5 hPa 0,0 l/m 14,6 km/h (3 Bft) O-NO 75 0 min 0 W/m -6,4 C -5,3 C 14,6 km/h (3 Bft)
14.03.2013 12:15 1,2 C 57 % 1011,5 hPa 0,0 l/m 17,9 km/h (3 Bft) O-NO 70 0 min 0 W/m -6,4 C -7,1 C 17,9 km/h (3 Bft)
14.03.2013 12:31 1,2 C 57 % 1011,5 hPa 0,0 l/m 17,9 km/h (3 Bft) O-NO 70 0 min 0 W/m -6,4 C -7,1 C 17,9 km/h (3 Bft)
14.03.2013 12:45 1,2 C 56 % 1011,5 hPa 0,0 l/m 17,9 km/h (3 Bft) O-NO 70 0 min 0 W/m -6,6 C -7,1 C 17,9 km/h (3 Bft)
14.03.2013 13:00 1,3 C 55 % 1011,5 hPa 0,0 l/m 17,9 km/h (3 Bft) O-NO 70 0 min 0 W/m -6,7 C -7,0 C 17,9 km/h (3 Bft)
14.03.2013 13:15 1,2 C 55 % 1011,5 hPa 0,0 l/m 24,8 km/h (4 Bft) O-NO 70 0 min 0 W/m -6,8 C -10,0 C 24,8 km/h (4 Bft)
14.03.2013 13:31 1,3 C 56 % 1011,5 hPa 0,0 l/m 23,1 km/h (4 Bft) O 85 0 min 0 W/m -6,5 C -9,2 C 23,1 km/h (4 Bft)
14.03.2013 13:45 1,3 C 54 % 1011,5 hPa 0,0 l/m 24,8 km/h (4 Bft) O-NO 70 0 min 0 W/m -7,0 C -9,9 C 24,8 km/h (4 Bft)
14.03.2013 14:00 1,4 C 55 % 1011,5 hPa 0,0 l/m 21,1 km/h (4 Bft) O-NO 75 0 min 0 W/m -6,6 C -8,3 C 21,1 km/h (4 Bft)
14.03.2013 14:16 1,2 C 56 % 1011,5 hPa 0,3 l/m 25,7 km/h (4 Bft) O-NO 70 0 min 0 W/m -6,6 C -10,3 C 25,7 km/h (4 Bft)
14.03.2013 14:31 1,1 C 56 % 1011,5 hPa 0,0 l/m 27,6 km/h (5 Bft) NO 45 0 min 0 W/m -6,7 C -11,1 C 27,6 km/h (5 Bft)
14.03.2013 14:45 1,1 C 55 % 1011,5 hPa 0,0 l/m 26,7 km/h (4 Bft) O-NO 70 0 min 0 W/m -6,9 C -10,8 C 26,7 km/h (4 Bft)
14.03.2013 15:00 1,2 C 55 % 1011,5 hPa 0,3 l/m 22,6 km/h (4 Bft) NO 55 0 min 0 W/m -6,8 C -9,2 C 22,6 km/h (4 Bft)
14.03.2013 15:16 1,2 C 57 % 1011,5 hPa 0,0 l/m 20,3 km/h (4 Bft) NO 50 0 min 0 W/m -6,4 C -8,2 C 20,3 km/h (4 Bft)
14.03.2013 15:30 0,9 C 57 % 1011,5 hPa 0,0 l/m 22,3 km/h (4 Bft) NO 50 0 min 0 W/m -6,6 C -9,5 C 22,3 km/h (4 Bft)
14.03.2013 15:45 0,6 C 55 % 1011,5 hPa 0,0 l/m 24,5 km/h (4 Bft) O-NO 60 0 min 0 W/m -7,4 C -10,7 C 24,5 km/h (4 Bft)
14.03.2013 16:00 0,4 C 56 % 1011,5 hPa 0,0 l/m 21,0 km/h (4 Bft) O-NO 60 0 min 0 W/m -7,3 C -9,6 C 21,0 km/h (4 Bft)
14.03.2013 16:16 0,2 C 58 % 1011,5 hPa 0,0 l/m 21,0 km/h (4 Bft) NO 55 0 min 0 W/m -7,1 C -9,8 C 21,0 km/h (4 Bft)
14.03.2013 16:30 0,3 C 59 % 1011,5 hPa 0,0 l/m 25,7 km/h (4 Bft) NO 50 0 min 0 W/m -6,8 C -11,6 C 25,7 km/h (4 Bft)
14.03.2013 16:45 0,3 C 58 % 1011,5 hPa 0,0 l/m 24,2 km/h (4 Bft) O-NO 70 0 min 0 W/m -7,0 C -11,0 C 24,2 km/h (4 Bft)
14.03.2013 17:00 0,2 C 59 % 1011,5 hPa 0,0 l/m 25,6 km/h (4 Bft) O-NO 60 0 min 0 W/m -6,8 C -11,7 C 25,6 km/h (4 Bft)
14.03.2013 17:15 0,1 C 59 % 1011,5 hPa 0,0 l/m 21,9 km/h (4 Bft) NO 55 0 min 0 W/m -6,9 C -10,3 C 21,9 km/h (4 Bft)
14.03.2013 17:30 0,1 C 60 % 1011,5 hPa 0,0 l/m 20,8 km/h (4 Bft) NO 50 0 min 0 W/m -6,7 C -9,9 C 20,8 km/h (4 Bft)
14.03.2013 17:45 -0,2 C 60 % 1012,5 hPa 0,0 l/m 20,1 km/h (4 Bft) NO 55 0 min 0 W/m -7,0 C -9,9 C 20,1 km/h (4 Bft)
14.03.2013 18:00 -0,3 C 60 % 1012,5 hPa 0,0 l/m 18,8 km/h (3 Bft) NO 40 0 min 0 W/m -7,1 C -9,4 C 18,8 km/h (3 Bft)
14.03.2013 18:15 -0,6 C 60 % 1012,5 hPa 0,0 l/m 20,0 km/h (4 Bft) NO 40 0 min 0 W/m -7,4 C -10,4 C 20,0 km/h (4 Bft)
14.03.2013 18:30 -0,6 C 61 % 1012,5 hPa 0,0 l/m 19,6 km/h (3 Bft) O-NO 65 0 min 0 W/m -7,2 C -10,2 C 19,6 km/h (3 Bft)
14.03.2013 18:45 -0,8 C 61 % 1012,5 hPa 0,0 l/m 21,8 km/h (4 Bft) NO 50 0 min 0 W/m -7,4 C -11,5 C 21,8 km/h (4 Bft)
14.03.2013 19:00 -0,8 C 62 % 1012,5 hPa 0,0 l/m 18,1 km/h (3 Bft) NO 55 0 min 0 W/m -7,1 C -9,7 C 18,1 km/h (3 Bft)
14.03.2013 19:15 -0,9 C 62 % 1012,5 hPa 0,0 l/m 17,4 km/h (3 Bft) NO 40 0 min 0 W/m -7,2 C -9,5 C 17,4 km/h (3 Bft)
14.03.2013 19:30 -1,0 C 62 % 1012,5 hPa 0,0 l/m 15,5 km/h (3 Bft) NO 45 0 min 0 W/m -7,3 C -8,5 C 15,5 km/h (3 Bft)
14.03.2013 19:45 -1,0 C 62 % 1012,5 hPa 0,0 l/m 15,0 km/h (3 Bft) O-NO 60 0 min 0 W/m -7,3 C -8,2 C 15,0 km/h (3 Bft)
14.03.2013 20:00 -1,0 C 63 % 1012,5 hPa 0,0 l/m 15,0 km/h (3 Bft) O-NO 65 0 min 0 W/m -7,1 C -8,2 C 15,0 km/h (3 Bft)
14.03.2013 20:15 -1,0 C 63 % 1012,5 hPa 0,0 l/m 13,0 km/h (3 Bft) NO 50 0 min 0 W/m -7,1 C -6,9 C 13,0 km/h (3 Bft)
14.03.2013 20:30 -1,0 C 63 % 1012,5 hPa 0,0 l/m 12,1 km/h (2 Bft) NO 50 0 min 0 W/m -7,1 C -6,2 C 12,1 km/h (2 Bft)
14.03.2013 20:45 -1,1 C 64 % 1013,5 hPa 0,0 l/m 14,0 km/h (3 Bft) N-NO 25 0 min 0 W/m -7,0 C -7,7 C 14,0 km/h (3 Bft)
14.03.2013 21:00 -1,1 C 64 % 1013,5 hPa 0,0 l/m 12,8 km/h (3 Bft) NO 50 0 min 0 W/m -7,0 C -6,9 C 12,8 km/h (3 Bft)
14.03.2013 21:15 -1,1 C 64 % 1013,5 hPa 0,0 l/m 13,3 km/h (3 Bft) N-NO 20 0 min 0 W/m -7,0 C -7,2 C 13,3 km/h (3 Bft)
14.03.2013 21:30 -1,0 C 65 % 1013,5 hPa 0,0 l/m 21,1 km/h (4 Bft) N-NO 15 0 min 0 W/m -6,7 C -11,4 C 21,1 km/h (4 Bft)
14.03.2013 21:45 -0,8 C 64 % 1013,5 hPa 0,0 l/m 6,0 km/h (2 Bft) NO 50 0 min 0 W/m -6,7 C -0,8 C 6,0 km/h (2 Bft)
14.03.2013 22:00 -0,7 C 65 % 1013,5 hPa 0,0 l/m 4,6 km/h (1 Bft) NO 50 0 min 0 W/m -6,4 C -0,7 C 4,6 km/h (1 Bft)
14.03.2013 22:15 -1,0 C 64 % 1013,5 hPa 0,0 l/m 8,3 km/h (2 Bft) O-NO 65 0 min 0 W/m -6,9 C -3,0 C 8,3 km/h (2 Bft)
14.03.2013 22:30 -1,0 C 65 % 1013,5 hPa 0,0 l/m 9,0 km/h (2 Bft) NO 50 0 min 0 W/m -6,7 C -3,7 C 9,0 km/h (2 Bft)
14.03.2013 22:45 -0,9 C 65 % 1013,5 hPa 0,0 l/m 7,1 km/h (2 Bft) NO 45 0 min 0 W/m -6,6 C -1,6 C 7,1 km/h (2 Bft)
14.03.2013 23:00 -1,0 C 65 % 1013,5 hPa 0,0 l/m 10,0 km/h (2 Bft) NO 45 0 min 0 W/m -6,7 C -4,6 C 10,0 km/h (2 Bft)
14.03.2013 23:15 -1,0 C 65 % 1013,5 hPa 0,0 l/m 5,9 km/h (2 Bft) NO 35 0 min 0 W/m -6,7 C -1,0 C 5,9 km/h (2 Bft)
14.03.2013 23:30 -1,4 C 65 % 1013,5 hPa 0,0 l/m 9,7 km/h (2 Bft) NO 50 0 min 0 W/m -7,1 C -4,7 C 9,7 km/h (2 Bft)
14.03.2013 23:45 -1,5 C 66 % 1013,5 hPa 0,0 l/m 0,6 km/h (0 Bft) NO 50 0 min 0 W/m -7,0 C -1,5 C 0,6 km/h (0 Bft)
_ Min-Zeit 08:15 13:45 00:00 - 23:45 - - - - 18:15 08:00 23:45
Minimum _ -2,1 C 54 % 1005,5 hPa - 0,6 km/h (0 Bft) - - - - -7,4 C -14,9 C 0,6 km/h (0 Bft)
_ Max-Zeit 14:00 01:15 20:45 14:16 14:31 - - 00:00 00:00 01:15 00:00 14:31
Maximum _ 1,4 C 88 % 1013,5 hPa 0,3 l/m 27,6 km/h
NO (5 Bft)
- - 0 min 0 W/m -2,2 C -0,2 C 27,6 km/h
NO (5 Bft)
Durchschnitt _ -0,4 C 70 % 1010,5 hPa #0,6 l/m 16,2 km/h (3 Bft) O-NO - #0 min. 0 W/m -5,5 C -7,7 C 16,2 km/h (3 Bft)
copyright by Holger Just